Time;durP1;ratioP1;P1;durP2;ratioP2;P2;SDS_P1;SDS_P2;PMS_P1;PMS_P2;Temp;Humidity;BMP_temperature;BMP_pressure;BME280_temperature;BME280_humidity;BME280_pressure;Samples;Min_cycle;Max_cycle;Signal;HPM_P1;HPM_P2
2024/02/24 00:00:25;;;;;;;23.80;14.00;;;;;;;9.18;94.51;98792.22;130109;1263;107073;-78
2024/02/24 00:03:50;;;;;;;19.00;11.70;;;;;;;9.17;94.70;98787.75;130105;1260;109734;-79
2024/02/24 00:06:56;;;;;;;20.90;14.90;;;;;;;9.17;94.80;98776.27;130322;1260;106514;-80
2024/02/24 00:10:02;;;;;;;19.60;13.50;;;;;;;9.20;94.79;98771.39;130466;1264;107921;-79
2024/02/24 00:13:08;;;;;;;22.40;15.30;;;;;;;9.23;94.66;98763.08;130278;1260;108767;-79
2024/02/24 00:16:16;;;;;;;27.20;18.80;;;;;;;9.24;94.73;98760.44;130362;1264;106442;-81
2024/02/24 00:19:21;;;;;;;19.20;13.50;;;;;;;9.24;94.49;98761.73;130317;1260;106959;-79
2024/02/24 00:22:27;;;;;;;19.20;12.70;;;;;;;9.23;94.44;98756.88;130333;1260;106509;-79
2024/02/24 00:25:33;;;;;;;20.30;14.00;;;;;;;9.23;94.73;98758.21;130430;1262;109429;-79
2024/02/24 00:28:38;;;;;;;28.90;18.60;;;;;;;9.25;94.67;98753.55;130372;1261;107538;-79
2024/02/24 00:31:44;;;;;;;22.40;15.40;;;;;;;9.29;94.66;98753.36;130102;1262;107608;-78
2024/02/24 00:34:49;;;;;;;20.80;14.50;;;;;;;9.29;94.66;98746.45;130104;1278;106998;-79
2024/02/24 00:37:55;;;;;;;20.30;14.20;;;;;;;9.26;94.47;98740.59;130223;1261;107828;-79
2024/02/24 00:41:01;;;;;;;17.20;12.40;;;;;;;9.23;94.53;98742.67;130244;1264;106655;-80
2024/02/24 00:44:09;;;;;;;20.60;14.40;;;;;;;9.22;94.69;98737.23;130163;1262;107052;-78
2024/02/24 00:47:15;;;;;;;19.40;14.20;;;;;;;9.25;94.70;98736.53;130332;1261;107684;-79
2024/02/24 00:50:21;;;;;;;29.30;19.70;;;;;;;9.28;94.46;98730.55;130097;1264;107645;-79
2024/02/24 00:53:28;;;;;;;23.70;16.30;;;;;;;9.27;94.54;98731.04;130064;1263;106332;-79
2024/02/24 00:56:33;;;;;;;28.80;17.90;;;;;;;9.24;94.52;98723.70;130313;1261;106433;-79
2024/02/24 00:59:39;;;;;;;22.80;14.70;;;;;;;9.23;94.68;98726.05;130039;1261;107612;-79
2024/02/24 01:02:45;;;;;;;17.30;11.90;;;;;;;9.20;94.72;98720.48;130141;1265;107034;-79
2024/02/24 01:05:50;;;;;;;20.40;14.20;;;;;;;9.19;94.65;98713.72;130034;1264;107696;-78
2024/02/24 01:08:56;;;;;;;19.60;14.30;;;;;;;9.20;94.58;98707.55;130325;1264;106508;-79
2024/02/24 01:12:02;;;;;;;22.70;15.30;;;;;;;9.22;94.67;98708.48;130430;1264;107378;-79
2024/02/24 01:15:09;;;;;;;20.00;15.10;;;;;;;9.23;94.43;98707.55;130094;1264;107607;-79
2024/02/24 01:18:14;;;;;;;22.90;16.10;;;;;;;9.23;94.70;98702.60;130132;1261;107767;-79
2024/02/24 01:21:20;;;;;;;20.70;13.60;;;;;;;9.21;94.62;98700.03;130061;1261;107584;-79
2024/02/24 01:24:26;;;;;;;23.00;14.60;;;;;;;9.17;94.55;98695.33;130211;1264;107555;-81
2024/02/24 01:27:31;;;;;;;19.80;13.90;;;;;;;9.14;94.46;98693.17;130227;1260;189138;-81
2024/02/24 01:30:37;;;;;;;22.80;16.00;;;;;;;9.12;94.58;98688.23;130415;1263;108717;-79
2024/02/24 01:33:42;;;;;;;19.90;14.20;;;;;;;9.13;94.59;98685.34;130243;1261;107680;-80
2024/02/24 01:36:48;;;;;;;22.80;15.10;;;;;;;9.12;94.82;98679.05;130295;1264;108520;-79
2024/02/24 01:39:54;;;;;;;20.80;13.20;;;;;;;9.10;94.65;98680.05;130073;1261;108689;-78
2024/02/24 01:43:00;;;;;;;28.20;16.80;;;;;;;9.09;94.73;98678.80;130506;1261;107582;-80
2024/02/24 01:46:07;;;;;;;26.40;18.60;;;;;;;9.12;94.65;98682.39;130445;1260;106975;-80
2024/02/24 01:49:13;;;;;;;22.30;15.10;;;;;;;9.13;94.71;98677.35;130443;1261;108120;-79
2024/02/24 01:52:19;;;;;;;21.30;14.10;;;;;;;9.15;94.78;98671.73;130382;1263;107356;-81
2024/02/24 01:55:25;;;;;;;23.10;14.60;;;;;;;9.16;94.65;98666.00;130411;1264;107850;-80
2024/02/24 01:58:33;;;;;;;19.50;13.40;;;;;;;9.13;94.65;98657.63;130451;1264;107437;-80
2024/02/24 02:01:39;;;;;;;19.20;12.50;;;;;;;9.13;94.61;98653.11;130530;1261;108728;-80
2024/02/24 02:04:45;;;;;;;20.00;14.00;;;;;;;9.13;94.54;98644.13;130317;1260;107671;-80
2024/02/24 02:07:50;;;;;;;18.30;13.30;;;;;;;9.15;94.80;98642.02;130480;1265;107588;-80
2024/02/24 02:10:56;;;;;;;20.30;13.60;;;;;;;9.15;94.51;98636.85;130409;1261;107542;-79
2024/02/24 02:14:02;;;;;;;20.20;13.40;;;;;;;9.14;94.51;98634.99;130360;1264;108615;-80
2024/02/24 02:17:08;;;;;;;21.50;12.90;;;;;;;9.12;94.46;98639.02;130279;1264;107168;-80
2024/02/24 02:20:14;;;;;;;18.80;12.90;;;;;;;9.10;94.36;98636.73;130288;1263;105798;-79
2024/02/24 02:23:19;;;;;;;18.10;12.80;;;;;;;9.09;94.51;98635.29;130740;1265;108726;-79
2024/02/24 02:26:25;;;;;;;18.10;13.60;;;;;;;9.10;94.50;98634.11;130891;1261;106778;-79
2024/02/24 02:29:31;;;;;;;19.20;13.20;;;;;;;9.09;94.63;98638.95;130661;1264;108914;-80
2024/02/24 02:32:36;;;;;;;17.70;12.60;;;;;;;9.10;94.70;98635.30;130685;1264;107079;-79
2024/02/24 02:35:42;;;;;;;18.30;11.80;;;;;;;9.09;94.53;98631.94;130295;1261;107083;-81
2024/02/24 02:38:48;;;;;;;16.40;11.50;;;;;;;9.06;94.35;98623.89;130639;1264;108454;-82
2024/02/24 02:41:53;;;;;;;18.20;12.10;;;;;;;9.05;94.68;98622.96;130516;1261;106678;-78
2024/02/24 02:44:59;;;;;;;19.60;12.90;;;;;;;9.04;94.64;98613.29;130359;1265;106280;-78
2024/02/24 02:48:06;;;;;;;19.60;13.30;;;;;;;9.03;94.60;98612.30;130297;1263;108225;-78
2024/02/24 02:51:11;;;;;;;20.00;12.90;;;;;;;9.01;94.61;98612.18;130308;1261;106687;-79
2024/02/24 02:54:17;;;;;;;17.00;12.50;;;;;;;9.01;94.57;98604.11;130245;1264;108803;-79
2024/02/24 02:57:23;;;;;;;17.20;11.40;;;;;;;8.98;94.57;98598.40;130222;1264;106984;-79
2024/02/24 03:00:28;;;;;;;20.10;13.30;;;;;;;8.97;94.62;98609.02;130297;1263;107381;-79
2024/02/24 03:03:34;;;;;;;18.90;12.40;;;;;;;8.95;94.87;98610.77;130277;1264;108068;-79
2024/02/24 03:06:39;;;;;;;19.10;12.20;;;;;;;8.95;94.70;98602.28;130051;1265;108631;-79
2024/02/24 03:09:49;;;;;;;19.20;12.90;;;;;;;8.95;94.64;98597.69;130280;1264;107963;-79
2024/02/24 03:12:54;;;;;;;17.30;11.60;;;;;;;8.94;94.73;98598.01;130288;1263;106541;-79
2024/02/24 03:16:00;;;;;;;15.60;10.70;;;;;;;8.92;94.79;98597.93;130355;1264;106730;-78
2024/02/24 03:19:06;;;;;;;17.30;11.50;;;;;;;8.91;94.57;98598.70;130518;1264;108774;-78
2024/02/24 03:22:11;;;;;;;20.40;12.00;;;;;;;8.92;94.56;98600.55;130116;1265;108631;-78
2024/02/24 03:25:17;;;;;;;19.60;12.70;;;;;;;8.91;94.63;98596.23;130067;1263;108688;-79
2024/02/24 03:28:23;;;;;;;17.60;12.40;;;;;;;8.90;94.73;98596.73;130075;1264;107807;-79
2024/02/24 03:31:28;;;;;;;17.20;12.50;;;;;;;8.89;94.78;98595.56;130074;1265;107874;-78
2024/02/24 03:34:34;;;;;;;18.10;11.80;;;;;;;8.87;94.86;98598.97;130055;1262;107734;-78
2024/02/24 03:37:40;;;;;;;16.10;11.10;;;;;;;8.86;94.56;98600.05;130049;1264;107088;-78
2024/02/24 03:40:45;;;;;;;17.20;11.40;;;;;;;8.84;94.82;98594.52;129989;1265;106738;-78
2024/02/24 03:43:51;;;;;;;16.60;11.40;;;;;;;8.85;94.65;98593.94;130046;1262;107797;-78
2024/02/24 03:46:56;;;;;;;17.70;11.80;;;;;;;8.85;94.78;98598.02;130206;1265;108191;-78
2024/02/24 03:50:02;;;;;;;17.40;12.30;;;;;;;8.84;94.88;98599.38;130028;1265;106553;-78
2024/02/24 03:53:08;;;;;;;16.10;12.10;;;;;;;8.82;94.74;98598.66;130055;1265;107608;-78
2024/02/24 03:56:13;;;;;;;16.60;11.10;;;;;;;8.80;94.76;98601.05;130052;1265;107184;-77
2024/02/24 03:59:19;;;;;;;15.40;10.30;;;;;;;8.78;94.83;98601.20;130035;1262;106663;-78
2024/02/24 04:02:25;;;;;;;16.00;11.30;;;;;;;8.77;94.94;98602.51;130057;1265;107724;-78
2024/02/24 04:05:30;;;;;;;14.90;11.30;;;;;;;8.79;95.02;98601.23;130054;1262;107616;-79
2024/02/24 04:08:36;;;;;;;15.40;11.80;;;;;;;8.81;94.93;98595.59;130040;1261;108684;-79
2024/02/24 04:11:42;;;;;;;15.20;12.10;;;;;;;8.80;94.93;98596.59;130233;1262;108817;-78
2024/02/24 04:14:47;;;;;;;16.00;11.30;;;;;;;8.79;95.00;98597.42;130254;1265;106530;-78
2024/02/24 04:17:53;;;;;;;13.70;10.60;;;;;;;8.77;94.79;98593.67;130088;1265;107396;-78
2024/02/24 04:20:58;;;;;;;14.30;10.80;;;;;;;8.75;94.90;98588.92;130094;1262;107594;-78
2024/02/24 04:24:05;;;;;;;15.60;11.60;;;;;;;8.76;94.85;98578.32;130055;1265;107931;-78
2024/02/24 04:27:11;;;;;;;14.80;12.20;;;;;;;8.78;94.79;98571.05;130050;1262;108114;-79
2024/02/24 04:30:16;;;;;;;17.60;12.60;;;;;;;8.80;94.93;98567.37;130228;1265;108521;-79
2024/02/24 04:33:22;;;;;;;14.20;11.90;;;;;;;8.80;95.00;98561.06;130110;1262;107689;-79
2024/02/24 04:36:28;;;;;;;16.60;12.10;;;;;;;8.78;94.84;98556.63;130268;1262;107601;-79
2024/02/24 04:39:33;;;;;;;15.00;10.70;;;;;;;8.77;94.75;98549.20;130319;1262;107945;-79
2024/02/24 04:42:39;;;;;;;14.90;11.20;;;;;;;8.75;94.83;98541.77;130058;1261;107642;-78
2024/02/24 04:45:44;;;;;;;16.40;12.50;;;;;;;8.74;94.93;98536.00;130164;1265;106936;-78
2024/02/24 04:48:50;;;;;;;18.00;13.20;;;;;;;8.74;94.86;98535.98;130417;1265;106444;-78
2024/02/24 04:51:55;;;;;;;18.70;14.50;;;;;;;8.76;94.81;98547.27;130052;1265;106937;-78
2024/02/24 04:55:02;;;;;;;16.30;13.10;;;;;;;8.77;94.91;98543.52;130085;1263;107668;-81
2024/02/24 04:58:07;;;;;;;16.30;12.80;;;;;;;8.75;94.72;98542.34;130421;1265;107065;-79
2024/02/24 05:01:13;;;;;;;20.00;16.60;;;;;;;8.72;94.79;98540.77;130463;1265;107818;-79
2024/02/24 05:04:19;;;;;;;15.90;12.30;;;;;;;8.70;95.07;98538.80;130271;1265;106509;-79
2024/02/24 05:07:25;;;;;;;16.10;12.30;;;;;;;8.72;95.01;98535.27;130208;1264;106791;-80
2024/02/24 05:10:31;;;;;;;16.20;12.70;;;;;;;8.76;94.87;98536.30;130244;1261;108505;-79
2024/02/24 05:13:37;;;;;;;15.70;13.10;;;;;;;8.78;95.02;98534.81;130198;1265;107844;-79
2024/02/24 05:16:43;;;;;;;15.10;12.40;;;;;;;8.80;94.92;98547.02;130140;1264;106612;-79
2024/02/24 05:19:48;;;;;;;16.50;12.30;;;;;;;8.78;95.04;98544.80;130090;1262;106576;-78
2024/02/24 05:22:54;;;;;;;14.80;11.20;;;;;;;8.77;94.94;98547.48;130094;1265;108528;-79
2024/02/24 05:26:00;;;;;;;16.50;11.90;;;;;;;8.77;94.97;98548.71;130070;1263;108313;-78
2024/02/24 05:29:06;;;;;;;58.40;35.10;;;;;;;8.78;94.87;98555.09;130081;1263;108217;-80
2024/02/24 05:32:13;;;;;;;28.40;20.70;;;;;;;8.78;94.97;98561.44;130311;1265;108635;-79
2024/02/24 05:35:19;;;;;;;22.00;15.20;;;;;;;8.78;95.10;98559.45;130092;1262;106746;-79
2024/02/24 05:38:24;;;;;;;19.10;15.00;;;;;;;8.77;94.96;98559.02;130289;1264;108515;-78
2024/02/24 05:41:30;;;;;;;19.30;13.40;;;;;;;8.75;95.03;98549.01;130073;1265;106232;-78
2024/02/24 05:44:35;;;;;;;16.40;10.80;;;;;;;8.74;94.95;98540.48;130165;1265;106228;-78
2024/02/24 05:47:41;;;;;;;21.80;14.70;;;;;;;8.74;95.09;98543.15;130036;1265;107867;-79
2024/02/24 05:50:48;;;;;;;17.90;14.80;;;;;;;8.76;95.16;98543.25;130068;1265;107612;-79
2024/02/24 05:53:54;;;;;;;18.40;15.30;;;;;;;8.78;95.23;98552.16;130273;1264;107697;-79
2024/02/24 05:57:02;;;;;;;19.60;15.90;;;;;;;8.83;95.18;98561.39;130125;1263;107776;-79
2024/02/24 06:00:11;;;;;;;19.10;13.70;;;;;;;8.85;95.12;98567.81;130099;1263;106430;-79
2024/02/24 06:03:17;;;;;;;17.50;12.60;;;;;;;8.84;95.02;98576.99;130218;1261;107154;-79
2024/02/24 06:06:23;;;;;;;16.30;11.30;;;;;;;8.85;95.07;98580.64;130225;1266;107879;-79
2024/02/24 06:09:28;;;;;;;19.00;14.10;;;;;;;8.87;95.19;98580.42;130458;1265;107716;-78
2024/02/24 06:12:34;;;;;;;16.20;13.30;;;;;;;8.88;95.04;98582.38;130295;1262;107894;-79
2024/02/24 06:15:39;;;;;;;17.90;12.90;;;;;;;8.90;95.17;98582.16;130148;1264;107113;-79
2024/02/24 06:18:45;;;;;;;18.80;15.90;;;;;;;8.91;94.98;98575.30;130417;1265;106952;-80
2024/02/24 06:21:50;;;;;;;19.70;15.10;;;;;;;8.92;95.05;98564.21;130262;1265;106739;-78
2024/02/24 06:24:56;;;;;;;12.50;9.80;;;;;;;8.91;95.21;98563.25;130150;1264;108716;-80
2024/02/24 06:28:02;;;;;;;17.40;12.40;;;;;;;8.94;95.11;98575.95;130337;1260;107158;-77
2024/02/24 06:31:08;;;;;;;16.30;13.00;;;;;;;9.00;95.05;98574.88;130378;1264;108663;-78
2024/02/24 06:34:14;;;;;;;18.10;15.20;;;;;;;9.06;95.02;98567.80;130114;1265;109257;-78
2024/02/24 06:37:20;;;;;;;18.00;14.40;;;;;;;9.09;94.91;98562.71;130110;1263;106488;-77
2024/02/24 06:40:26;;;;;;;21.50;15.40;;;;;;;9.11;94.90;98564.94;130118;1265;108838;-77
2024/02/24 06:43:31;;;;;;;18.80;12.90;;;;;;;9.14;95.03;98574.30;130105;1265;108256;-77
2024/02/24 06:46:37;;;;;;;17.20;12.80;;;;;;;9.16;94.73;98573.23;130089;1265;106433;-78
2024/02/24 06:49:43;;;;;;;16.50;12.10;;;;;;;9.20;94.77;98579.12;130133;1264;106572;-77
2024/02/24 06:52:48;;;;;;;16.60;11.80;;;;;;;9.22;94.94;98585.77;130109;1265;108827;-76
2024/02/24 06:55:54;;;;;;;15.40;11.60;;;;;;;9.22;94.72;98584.14;130091;1265;107858;-77
2024/02/24 06:59:01;;;;;;;14.10;10.90;;;;;;;9.22;94.89;98595.71;130066;1261;107435;-77
2024/02/24 07:02:08;;;;;;;14.00;10.20;;;;;;;9.21;94.95;98606.47;130095;1265;106891;-78
2024/02/24 07:05:14;;;;;;;15.50;10.60;;;;;;;9.21;94.68;98604.14;130237;1263;108584;-79
2024/02/24 07:08:19;;;;;;;14.50;11.40;;;;;;;9.23;94.81;98616.48;130400;1264;109650;-78
2024/02/24 07:11:25;;;;;;;15.70;11.60;;;;;;;9.26;94.96;98623.77;130300;1264;108505;-77
2024/02/24 07:14:31;;;;;;;14.00;11.90;;;;;;;9.29;95.00;98626.31;130464;1265;108381;-78
2024/02/24 07:17:37;;;;;;;13.90;10.20;;;;;;;9.29;95.10;98623.77;130270;1265;108329;-78
2024/02/24 07:20:42;;;;;;;12.60;8.60;;;;;;;9.30;94.74;98624.55;130334;1260;106698;-79
2024/02/24 07:23:49;;;;;;;12.70;10.10;;;;;;;9.32;94.95;98623.89;130270;1267;108452;-78
2024/02/24 07:26:55;;;;;;;14.30;10.60;;;;;;;9.38;94.98;98627.08;130418;1265;108890;-79
2024/02/24 07:30:01;;;;;;;16.90;10.50;;;;;;;9.42;94.86;98643.65;130220;1265;109842;-82
2024/02/24 07:33:10;;;;;;;13.90;11.30;;;;;;;9.44;94.71;98646.82;130471;1265;108536;-79
2024/02/24 07:36:16;;;;;;;13.70;10.80;;;;;;;9.47;94.71;98652.02;130295;1266;108424;-78
2024/02/24 07:39:21;;;;;;;15.50;11.70;;;;;;;9.49;94.87;98657.77;130451;1265;107767;-78
2024/02/24 07:42:27;;;;;;;24.60;16.20;;;;;;;9.53;94.80;98660.66;130185;1261;108477;-78
2024/02/24 07:45:32;;;;;;;20.40;13.30;;;;;;;9.61;94.86;98665.61;130078;1265;106510;-78
2024/02/24 07:48:38;;;;;;;60.90;33.10;;;;;;;9.67;94.87;98674.84;130087;1274;108515;-78
2024/02/24 07:51:44;;;;;;;39.30;21.90;;;;;;;9.69;94.77;98676.29;130196;1265;108571;-78
2024/02/24 07:54:49;;;;;;;25.00;16.60;;;;;;;9.68;94.84;98679.48;130149;1265;108262;-79
2024/02/24 07:57:55;;;;;;;14.90;10.80;;;;;;;9.68;94.98;98678.25;130152;1265;105942;-78
2024/02/24 08:01:00;;;;;;;21.20;14.70;;;;;;;9.75;95.17;98690.98;130078;1265;108317;-78
2024/02/24 08:04:06;;;;;;;17.10;12.20;;;;;;;9.83;94.83;98686.97;130150;1265;108498;-79
2024/02/24 08:07:12;;;;;;;189.10;83.30;;;;;;;9.91;94.53;98691.43;130121;1265;108407;-78
2024/02/24 08:10:17;;;;;;;26.60;15.00;;;;;;;9.94;94.29;98695.52;130134;1262;107708;-78
2024/02/24 08:13:23;;;;;;;41.70;20.20;;;;;;;9.93;93.84;98704.45;130347;1263;108442;-79
2024/02/24 08:16:29;;;;;;;50.90;22.00;;;;;;;9.92;93.91;98711.86;133741;1262;108729;-80
2024/02/24 08:19:35;;;;;;;39.80;19.50;;;;;;;9.94;94.06;98709.99;131862;1260;110156;-78
2024/02/24 08:22:40;;;;;;;31.50;15.90;;;;;;;10.03;93.95;98716.55;130316;1265;107756;-78
2024/02/24 08:25:47;;;;;;;73.70;36.20;;;;;;;10.11;93.94;98723.94;131247;1263;108567;-81
2024/02/24 08:28:52;;;;;;;25.40;14.10;;;;;;;10.13;93.26;98727.23;130344;1265;107692;-76
2024/02/24 08:31:58;;;;;;;172.00;96.30;;;;;;;10.11;93.28;98729.34;131818;1260;108466;-80
2024/02/24 08:35:04;;;;;;;78.50;52.60;;;;;;;10.07;93.06;98735.11;130448;1260;108638;-80
2024/02/24 08:38:09;;;;;;;18.00;13.20;;;;;;;10.01;93.05;98742.92;131112;1263;107927;-80
2024/02/24 08:41:15;;;;;;;10.00;7.10;;;;;;;9.98;92.87;98750.25;130344;1275;108372;-80
2024/02/24 08:44:20;;;;;;;9.50;6.60;;;;;;;9.98;93.24;98758.55;130268;1265;108752;-80
2024/02/24 08:47:26;;;;;;;8.00;6.20;;;;;;;10.00;93.20;98766.52;130148;1263;108027;-81
2024/02/24 08:50:32;;;;;;;8.50;6.70;;;;;;;9.99;92.66;98767.33;130262;1264;107150;-82
2024/02/24 08:53:37;;;;;;;6.30;4.80;;;;;;;9.93;92.63;98776.06;130279;1262;108473;-81
2024/02/24 08:56:43;;;;;;;6.90;4.50;;;;;;;9.90;92.82;98790.83;130299;1266;106929;-80
2024/02/24 08:59:49;;;;;;;7.20;4.70;;;;;;;9.92;92.80;98801.82;130284;1267;106669;-79
2024/02/24 09:02:54;;;;;;;5.50;4.30;;;;;;;10.01;92.74;98800.45;130279;1266;107866;-80
2024/02/24 09:06:00;;;;;;;5.00;4.10;;;;;;;10.11;92.46;98802.13;130262;1274;106762;-80
2024/02/24 09:09:06;;;;;;;4.20;3.40;;;;;;;10.22;92.13;98804.73;130307;1260;106556;-80
2024/02/24 09:12:11;;;;;;;4.30;3.40;;;;;;;10.32;92.05;98803.30;130333;1265;106498;-80
2024/02/24 09:15:17;;;;;;;3.40;2.70;;;;;;;10.43;91.90;98809.10;130234;1265;108691;-80
2024/02/24 09:18:24;;;;;;;7.50;3.00;;;;;;;10.56;91.77;98824.59;130306;1265;108657;-80
2024/02/24 09:21:30;;;;;;;3.50;2.70;;;;;;;10.65;90.76;98831.33;130321;1264;108658;-80
2024/02/24 09:24:38;;;;;;;3.60;2.60;;;;;;;10.72;90.66;98835.23;130287;1262;107403;-79
2024/02/24 09:27:44;;;;;;;3.40;2.30;;;;;;;10.84;90.09;98844.09;130269;1264;107670;-80
2024/02/24 09:30:51;;;;;;;3.70;2.50;;;;;;;10.81;90.03;98850.91;130284;1264;106638;-80
2024/02/24 09:33:57;;;;;;;4.70;3.00;;;;;;;10.77;89.89;98862.62;130418;1265;108531;-80
2024/02/24 09:37:05;;;;;;;3.70;2.70;;;;;;;10.76;90.16;98878.13;130764;1265;106775;-79
2024/02/24 09:40:11;;;;;;;3.80;3.10;;;;;;;10.78;89.59;98887.54;130610;1265;107793;-78
2024/02/24 09:43:17;;;;;;;4.50;2.70;;;;;;;10.73;89.49;98895.73;130156;1265;108556;-81
2024/02/24 09:46:23;;;;;;;4.30;3.30;;;;;;;10.64;89.42;98900.05;130275;1263;108661;-80
2024/02/24 09:49:30;;;;;;;5.90;4.50;;;;;;;10.64;89.71;98908.64;130394;1260;108758;-80
2024/02/24 09:52:38;;;;;;;5.90;4.20;;;;;;;10.76;89.87;98920.11;130125;1265;106777;-80
2024/02/24 09:55:44;;;;;;;6.50;5.20;;;;;;;10.95;88.83;98940.84;130864;1269;106612;-79
2024/02/24 09:58:53;;;;;;;6.70;4.90;;;;;;;11.02;86.67;98954.02;130489;1265;107102;-80
2024/02/24 10:01:59;;;;;;;5.70;4.30;;;;;;;11.06;87.59;98964.56;130542;1265;107550;-80
2024/02/24 10:05:05;;;;;;;5.60;4.30;;;;;;;11.12;86.44;98974.71;130411;1264;106364;-79
2024/02/24 10:08:11;;;;;;;5.80;4.60;;;;;;;11.01;85.25;98975.09;130065;1265;106543;-79
2024/02/24 10:11:18;;;;;;;5.70;4.60;;;;;;;11.01;86.51;98976.58;130528;1263;108020;-78
2024/02/24 10:14:24;;;;;;;5.70;4.60;;;;;;;11.07;86.22;98987.36;130373;1262;108793;-78
2024/02/24 10:17:31;;;;;;;6.40;4.50;;;;;;;11.01;84.65;98997.34;130161;1267;106692;-78
2024/02/24 10:20:37;;;;;;;4.90;4.40;;;;;;;10.86;84.24;99007.92;130471;1267;106470;-78
2024/02/24 10:23:42;;;;;;;5.00;4.20;;;;;;;10.81;84.49;99027.68;130183;1265;107671;-78
2024/02/24 10:26:52;;;;;;;4.50;3.60;;;;;;;10.79;84.88;99031.67;130455;1265;106471;-78
2024/02/24 10:30:02;;;;;;;3.60;2.80;;;;;;;10.75;84.30;99034.00;130265;1269;107895;-80
2024/02/24 10:33:09;;;;;;;3.30;3.00;;;;;;;10.60;83.85;99043.90;130916;1265;107098;-81
2024/02/24 10:36:16;;;;;;;4.30;2.90;;;;;;;10.50;83.46;99050.48;130435;1265;107835;-80
2024/02/24 10:39:21;;;;;;;3.50;3.10;;;;;;;10.37;83.55;99062.33;130443;1269;108426;-80
2024/02/24 10:42:29;;;;;;;3.70;3.20;;;;;;;10.32;83.70;99074.20;130431;1265;107971;-81
2024/02/24 10:45:35;;;;;;;4.60;3.70;;;;;;;10.28;81.61;99083.78;130496;1272;108518;-80
2024/02/24 10:48:41;;;;;;;3.30;2.60;;;;;;;10.04;80.99;99089.15;130361;1265;106619;-80
2024/02/24 10:51:49;;;;;;;4.10;3.70;;;;;;;9.92;81.88;99100.20;130304;1266;108657;-80
2024/02/24 10:54:57;;;;;;;9.00;6.20;;;;;;;9.86;82.58;99110.51;130422;1265;108721;-82
2024/02/24 10:58:03;;;;;;;10.60;7.20;;;;;;;9.83;82.90;99121.98;130463;1270;107067;-81
2024/02/24 11:01:09;;;;;;;4.20;2.90;;;;;;;9.77;82.38;99128.75;130469;1265;107686;-79
2024/02/24 11:04:16;;;;;;;17.00;13.20;;;;;;;9.73;81.77;99139.42;130361;1266;109176;-82
2024/02/24 11:07:23;;;;;;;23.30;16.20;;;;;;;9.67;82.51;99150.25;130424;1264;106747;-81
2024/02/24 11:10:34;;;;;;;8.80;7.30;;;;;;;9.72;81.76;99163.86;130414;1264;107508;-81
2024/02/24 11:13:46;;;;;;;4.80;3.80;;;;;;;9.76;81.60;99171.45;130526;1261;108741;-80
2024/02/24 11:16:53;;;;;;;3.80;3.20;;;;;;;9.83;81.17;99177.77;130627;1267;108687;-82
2024/02/24 11:19:58;;;;;;;3.20;2.90;;;;;;;9.92;80.96;99176.35;130644;1264;108836;-77
2024/02/24 11:23:24;;;;;;;3.10;2.80;;;;;;;10.01;81.49;99184.23;130275;1267;106244;-80
2024/02/24 11:26:33;;;;;;;3.60;3.10;;;;;;;9.99;80.19;99191.56;130381;1264;108533;-78
2024/02/24 11:29:39;;;;;;;3.40;3.10;;;;;;;9.92;80.52;99198.27;130506;1264;106762;-78
2024/02/24 11:32:46;;;;;;;4.10;3.10;;;;;;;9.87;80.76;99199.52;130364;1264;106923;-78
2024/02/24 11:35:51;;;;;;;3.70;3.10;;;;;;;9.82;80.64;99205.52;130055;1261;106739;-77
2024/02/24 11:38:59;;;;;;;4.70;3.20;;;;;;;9.81;80.40;99209.61;130174;1264;107888;-80
2024/02/24 11:42:05;;;;;;;3.30;2.90;;;;;;;9.79;80.14;99209.08;130286;1267;106287;-76
2024/02/24 11:45:27;;;;;;;3.80;2.80;;;;;;;9.73;80.35;99210.84;130691;1261;109451;-79
2024/02/24 11:48:34;;;;;;;3.50;3.00;;;;;;;9.68;79.89;99211.95;130345;1264;107578;-78
2024/02/24 11:51:39;;;;;;;3.00;2.70;;;;;;;9.64;79.88;99223.20;130374;1274;107556;-78
2024/02/24 11:54:46;;;;;;;3.00;2.70;;;;;;;9.64;79.97;99221.30;130349;1264;107777;-77
2024/02/24 11:57:52;;;;;;;6.50;4.90;;;;;;;9.68;80.10;99230.95;130137;1264;107627;-77
2024/02/24 12:00:58;;;;;;;6.10;4.20;;;;;;;9.69;79.12;99228.38;130132;1264;107714;-79
2024/02/24 12:04:04;;;;;;;7.10;4.70;;;;;;;9.62;77.67;99223.11;130156;1274;107649;-78
2024/02/24 12:07:09;;;;;;;3.50;3.10;;;;;;;9.54;78.87;99223.48;130251;1265;107116;-76
2024/02/24 12:10:15;;;;;;;5.50;3.50;;;;;;;9.57;78.92;99225.02;130196;1265;106478;-77
2024/02/24 12:13:21;;;;;;;4.10;3.10;;;;;;;9.58;77.98;99233.10;130072;1266;106816;-77
2024/02/24 12:16:27;;;;;;;7.70;4.30;;;;;;;9.57;78.62;99240.58;130101;1274;108714;-76
2024/02/24 12:19:37;;;;;;;5.60;3.70;;;;;;;9.61;79.50;99250.21;130267;1260;108641;-79
2024/02/24 12:22:43;;;;;;;4.90;3.40;;;;;;;9.67;78.77;99260.55;130378;1266;107658;-78
2024/02/24 12:25:49;;;;;;;13.10;7.40;;;;;;;9.62;77.31;99266.96;130333;1267;106352;-77
2024/02/24 12:28:54;;;;;;;6.80;4.70;;;;;;;9.44;77.56;99273.17;130293;1265;108591;-79
2024/02/24 12:32:00;;;;;;;5.40;4.00;;;;;;;9.32;76.30;99280.05;130556;1264;108506;-80
2024/02/24 12:35:09;;;;;;;5.40;4.40;;;;;;;9.16;77.52;99288.21;130357;1261;106614;-80
2024/02/24 12:38:17;;;;;;;5.00;4.50;;;;;;;9.13;78.02;99290.09;130546;1261;106705;-80
2024/02/24 12:41:23;;;;;;;5.20;4.40;;;;;;;9.22;78.33;99290.20;130403;1264;106975;-80
2024/02/24 12:44:28;;;;;;;5.60;4.00;;;;;;;9.33;78.20;99296.95;130364;1264;108467;-81
2024/02/24 12:47:34;;;;;;;6.00;4.50;;;;;;;9.37;77.27;99305.63;130441;1260;107774;-81
2024/02/24 12:50:39;;;;;;;5.70;4.50;;;;;;;9.39;77.10;99315.84;130391;1264;108614;-80
2024/02/24 12:53:45;;;;;;;6.60;5.00;;;;;;;9.42;77.01;99324.55;130404;1261;108739;-80
2024/02/24 12:56:51;;;;;;;5.50;4.30;;;;;;;9.47;77.15;99337.83;130460;1264;109813;-81
2024/02/24 12:59:57;;;;;;;5.20;4.40;;;;;;;9.52;77.51;99347.07;130332;1264;108884;-80
2024/02/24 13:03:02;;;;;;;6.00;4.50;;;;;;;9.62;77.61;99348.09;130417;1264;108618;-80
2024/02/24 13:06:09;;;;;;;4.60;4.10;;;;;;;9.72;77.66;99353.24;130419;1264;107723;-81
2024/02/24 13:09:14;;;;;;;7.10;4.70;;;;;;;9.82;77.68;99351.55;130422;1264;107487;-82
2024/02/24 13:16:10;;;;;;;5.60;5.00;;;;;;;10.01;77.23;99355.26;130466;1261;107926;-81
2024/02/24 13:19:15;;;;;;;6.80;4.60;;;;;;;10.03;77.08;99357.61;130403;1264;107661;-80
2024/02/24 13:22:21;;;;;;;5.50;4.20;;;;;;;10.00;76.98;99361.69;130411;1262;107721;-80
2024/02/24 13:25:27;;;;;;;7.70;5.40;;;;;;;10.00;77.44;99366.50;130415;1264;107883;-80
2024/02/24 13:28:32;;;;;;;6.50;5.00;;;;;;;10.00;77.34;99373.42;130182;1264;138183;-83
2024/02/24 13:31:38;;;;;;;8.10;5.40;;;;;;;9.96;77.10;99378.43;130954;1260;106735;-81
2024/02/24 13:34:43;;;;;;;6.50;5.20;;;;;;;9.95;77.02;99383.02;130340;1265;107606;-81
2024/02/24 13:37:50;;;;;;;7.50;4.70;;;;;;;9.92;76.85;99379.98;130404;1261;107925;-80
2024/02/24 13:40:55;;;;;;;7.70;4.60;;;;;;;9.92;77.00;99378.78;130359;1264;107127;-80
2024/02/24 13:44:01;;;;;;;4.60;3.80;;;;;;;9.94;76.53;99383.70;130331;1264;108611;-80
2024/02/24 13:47:07;;;;;;;5.70;4.00;;;;;;;9.94;76.69;99386.19;130318;1261;107688;-81
2024/02/24 13:50:13;;;;;;;5.90;4.00;;;;;;;9.89;76.57;99388.14;131910;1260;107107;-80
2024/02/24 13:53:19;;;;;;;5.60;4.10;;;;;;;9.80;76.34;99390.48;132885;1260;107566;-80
2024/02/24 13:56:25;;;;;;;7.10;5.10;;;;;;;9.76;76.61;99398.38;131185;1260;106778;-80
2024/02/24 13:59:30;;;;;;;12.00;7.20;;;;;;;9.74;76.13;99400.39;130559;1264;106860;-81
2024/02/24 14:02:36;;;;;;;7.90;5.10;;;;;;;9.77;75.88;99405.08;130358;1260;107723;-82
2024/02/24 14:05:42;;;;;;;6.70;5.30;;;;;;;9.76;75.85;99403.51;130305;1276;107189;-80
2024/02/24 14:08:47;;;;;;;6.00;4.30;;;;;;;9.73;75.60;99397.36;130399;1264;107403;-81
2024/02/24 14:11:53;;;;;;;5.50;4.30;;;;;;;9.70;76.24;99405.85;130321;1276;106680;-81
2024/02/24 14:14:58;;;;;;;6.30;5.20;;;;;;;9.69;76.15;99412.64;130478;1264;107075;-80